sensor_id;sensor_type;location;lat;lon;timestamp;pressure;altitude;pressure_sealevel;temperature;humidity
29359;BME280;16347;53.232;6.556;2023-02-04T00:00:37;103065.50;;;9.77;66.66
29359;BME280;16347;53.232;6.556;2023-02-04T00:03:07;103064.16;;;9.85;66.63
29359;BME280;16347;53.232;6.556;2023-02-04T00:05:35;103061.91;;;9.77;67.01
29359;BME280;16347;53.232;6.556;2023-02-04T00:08:03;103072.31;;;9.85;66.62
29359;BME280;16347;53.232;6.556;2023-02-04T00:10:31;103063.56;;;9.94;66.43
29359;BME280;16347;53.232;6.556;2023-02-04T00:13:00;103063.84;;;9.89;66.67
29359;BME280;16347;53.232;6.556;2023-02-04T00:15:29;103066.94;;;9.97;66.17
29359;BME280;16347;53.232;6.556;2023-02-04T00:17:57;103077.50;;;10.02;66.31
29359;BME280;16347;53.232;6.556;2023-02-04T00:20:25;103089.53;;;9.98;66.24
29359;BME280;16347;53.232;6.556;2023-02-04T00:22:54;103091.97;;;10.02;66.15
29359;BME280;16347;53.232;6.556;2023-02-04T00:25:22;103100.41;;;9.98;66.38
29359;BME280;16347;53.232;6.556;2023-02-04T00:27:51;103096.66;;;9.86;66.68
29359;BME280;16347;53.232;6.556;2023-02-04T00:30:19;103103.53;;;9.92;66.54
29359;BME280;16347;53.232;6.556;2023-02-04T00:32:48;103097.91;;;9.95;66.61
29359;BME280;16347;53.232;6.556;2023-02-04T00:35:20;103108.78;;;9.95;66.83
29359;BME280;16347;53.232;6.556;2023-02-04T00:37:51;103104.81;;;10.00;66.72
29359;BME280;16347;53.232;6.556;2023-02-04T00:40:19;103111.91;;;9.89;66.72
29359;BME280;16347;53.232;6.556;2023-02-04T00:42:48;103123.63;;;9.89;66.85
29359;BME280;16347;53.232;6.556;2023-02-04T00:45:16;103129.16;;;9.88;67.34
29359;BME280;16347;53.232;6.556;2023-02-04T00:47:44;103126.75;;;9.83;67.53
29359;BME280;16347;53.232;6.556;2023-02-04T00:50:15;103137.34;;;9.73;67.88
29359;BME280;16347;53.232;6.556;2023-02-04T00:52:43;103134.13;;;9.81;67.78
29359;BME280;16347;53.232;6.556;2023-02-04T00:55:12;103139.75;;;9.78;68.15
29359;BME280;16347;53.232;6.556;2023-02-04T00:57:42;103144.91;;;9.68;67.99
29359;BME280;16347;53.232;6.556;2023-02-04T01:00:14;103145.09;;;9.79;68.20
29359;BME280;16347;53.232;6.556;2023-02-04T01:02:43;103135.66;;;9.85;68.05
29359;BME280;16347;53.232;6.556;2023-02-04T01:05:11;103138.59;;;9.68;68.46
29359;BME280;16347;53.232;6.556;2023-02-04T01:07:40;103135.00;;;9.67;68.77
29359;BME280;16347;53.232;6.556;2023-02-04T01:10:09;103146.47;;;9.72;68.61
29359;BME280;16347;53.232;6.556;2023-02-04T01:12:38;103141.50;;;9.65;68.88
29359;BME280;16347;53.232;6.556;2023-02-04T01:15:07;103149.84;;;9.62;68.79
29359;BME280;16347;53.232;6.556;2023-02-04T01:17:36;103149.38;;;9.69;69.03
29359;BME280;16347;53.232;6.556;2023-02-04T01:20:04;103147.03;;;9.77;68.59
29359;BME280;16347;53.232;6.556;2023-02-04T01:22:33;103160.88;;;9.87;68.81
29359;BME280;16347;53.232;6.556;2023-02-04T01:25:03;103158.00;;;9.90;68.94
29359;BME280;16347;53.232;6.556;2023-02-04T01:27:41;103159.66;;;9.93;68.84
29359;BME280;16347;53.232;6.556;2023-02-04T01:30:13;103153.13;;;9.95;68.58
29359;BME280;16347;53.232;6.556;2023-02-04T01:32:43;103165.16;;;10.05;68.32
29359;BME280;16347;53.232;6.556;2023-02-04T01:35:12;103160.31;;;10.10;68.00
29359;BME280;16347;53.232;6.556;2023-02-04T01:37:40;103170.19;;;10.11;67.69
29359;BME280;16347;53.232;6.556;2023-02-04T01:40:11;103176.50;;;10.12;67.77
29359;BME280;16347;53.232;6.556;2023-02-04T01:42:39;103183.63;;;10.14;67.70
29359;BME280;16347;53.232;6.556;2023-02-04T01:45:09;103184.66;;;9.98;67.62
29359;BME280;16347;53.232;6.556;2023-02-04T01:47:38;103183.91;;;9.96;68.04
29359;BME280;16347;53.232;6.556;2023-02-04T01:50:09;103199.72;;;10.03;68.22
29359;BME280;16347;53.232;6.556;2023-02-04T01:52:39;103200.69;;;10.02;68.20
29359;BME280;16347;53.232;6.556;2023-02-04T01:55:13;103210.19;;;10.09;68.09
29359;BME280;16347;53.232;6.556;2023-02-04T01:57:43;103211.97;;;10.10;68.29
29359;BME280;16347;53.232;6.556;2023-02-04T02:00:14;103206.53;;;10.10;68.21
29359;BME280;16347;53.232;6.556;2023-02-04T02:02:48;103213.59;;;10.13;67.77
29359;BME280;16347;53.232;6.556;2023-02-04T02:05:20;103220.84;;;10.14;67.74
29359;BME280;16347;53.232;6.556;2023-02-04T02:07:52;103222.28;;;10.19;67.90
29359;BME280;16347;53.232;6.556;2023-02-04T02:10:22;103215.34;;;10.28;67.42
29359;BME280;16347;53.232;6.556;2023-02-04T02:12:52;103216.22;;;10.28;67.56
29359;BME280;16347;53.232;6.556;2023-02-04T02:15:21;103225.66;;;10.37;66.93
29359;BME280;16347;53.232;6.556;2023-02-04T02:17:50;103211.59;;;10.31;66.93
29359;BME280;16347;53.232;6.556;2023-02-04T02:20:20;103219.75;;;10.31;67.25
29359;BME280;16347;53.232;6.556;2023-02-04T02:22:57;103225.19;;;10.31;67.46
29359;BME280;16347;53.232;6.556;2023-02-04T02:25:29;103233.72;;;10.24;67.40
29359;BME280;16347;53.232;6.556;2023-02-04T02:27:58;103238.38;;;10.22;67.64
29359;BME280;16347;53.232;6.556;2023-02-04T02:30:27;103243.59;;;10.11;67.63
29359;BME280;16347;53.232;6.556;2023-02-04T02:32:57;103238.25;;;10.10;67.45
29359;BME280;16347;53.232;6.556;2023-02-04T02:35:26;103234.09;;;9.90;68.40
29359;BME280;16347;53.232;6.556;2023-02-04T02:37:55;103231.28;;;10.06;67.82
29359;BME280;16347;53.232;6.556;2023-02-04T02:40:24;103221.75;;;10.13;67.92
29359;BME280;16347;53.232;6.556;2023-02-04T02:42:54;103222.16;;;10.21;67.88
29359;BME280;16347;53.232;6.556;2023-02-04T02:45:24;103223.22;;;10.18;68.01
29359;BME280;16347;53.232;6.556;2023-02-04T02:47:55;103232.06;;;10.22;67.50
29359;BME280;16347;53.232;6.556;2023-02-04T02:50:27;103231.09;;;10.23;67.18
29359;BME280;16347;53.232;6.556;2023-02-04T02:52:57;103236.75;;;10.20;67.24
29359;BME280;16347;53.232;6.556;2023-02-04T02:55:27;103244.22;;;10.16;67.21
29359;BME280;16347;53.232;6.556;2023-02-04T02:57:58;103251.09;;;10.22;67.64
29359;BME280;16347;53.232;6.556;2023-02-04T03:00:28;103263.53;;;10.26;67.73
29359;BME280;16347;53.232;6.556;2023-02-04T03:03:00;103253.34;;;10.29;67.16
29359;BME280;16347;53.232;6.556;2023-02-04T03:05:35;103250.34;;;10.34;67.11
29359;BME280;16347;53.232;6.556;2023-02-04T03:08:07;103265.78;;;10.34;66.99
29359;BME280;16347;53.232;6.556;2023-02-04T03:10:39;103260.22;;;10.35;67.22
29359;BME280;16347;53.232;6.556;2023-02-04T03:13:15;103268.50;;;10.34;67.14
29359;BME280;16347;53.232;6.556;2023-02-04T03:15:48;103271.28;;;10.32;66.71
29359;BME280;16347;53.232;6.556;2023-02-04T03:18:19;103278.28;;;10.36;66.59
29359;BME280;16347;53.232;6.556;2023-02-04T03:20:49;103269.06;;;10.39;66.52
29359;BME280;16347;53.232;6.556;2023-02-04T03:23:18;103271.47;;;10.43;66.35
29359;BME280;16347;53.232;6.556;2023-02-04T03:25:47;103272.16;;;10.47;66.42
29359;BME280;16347;53.232;6.556;2023-02-04T03:28:17;103274.75;;;10.48;66.34
29359;BME280;16347;53.232;6.556;2023-02-04T03:30:45;103281.00;;;10.50;65.78
29359;BME280;16347;53.232;6.556;2023-02-04T03:33:22;103283.72;;;10.50;65.69
29359;BME280;16347;53.232;6.556;2023-02-04T03:35:51;103286.25;;;10.53;65.35
29359;BME280;16347;53.232;6.556;2023-02-04T03:38:20;103290.03;;;10.51;65.20
29359;BME280;16347;53.232;6.556;2023-02-04T03:40:48;103288.97;;;10.53;65.15
29359;BME280;16347;53.232;6.556;2023-02-04T03:43:17;103294.28;;;10.55;65.09
29359;BME280;16347;53.232;6.556;2023-02-04T03:45:45;103299.84;;;10.53;64.64
29359;BME280;16347;53.232;6.556;2023-02-04T03:48:13;103304.50;;;10.51;64.38
29359;BME280;16347;53.232;6.556;2023-02-04T03:50:41;103315.28;;;10.53;64.31
29359;BME280;16347;53.232;6.556;2023-02-04T03:53:10;103308.97;;;10.52;64.42
29359;BME280;16347;53.232;6.556;2023-02-04T03:55:38;103307.13;;;10.53;64.09
29359;BME280;16347;53.232;6.556;2023-02-04T03:58:06;103312.56;;;10.53;64.01
29359;BME280;16347;53.232;6.556;2023-02-04T04:00:35;103319.97;;;10.51;63.36
29359;BME280;16347;53.232;6.556;2023-02-04T04:03:03;103316.38;;;10.50;63.93
29359;BME280;16347;53.232;6.556;2023-02-04T04:05:32;103326.25;;;10.51;63.58
29359;BME280;16347;53.232;6.556;2023-02-04T04:08:00;103336.16;;;10.52;63.60
29359;BME280;16347;53.232;6.556;2023-02-04T04:10:28;103335.28;;;10.52;63.40
29359;BME280;16347;53.232;6.556;2023-02-04T04:12:57;103335.47;;;10.49;63.18
29359;BME280;16347;53.232;6.556;2023-02-04T04:15:25;103337.31;;;10.48;63.44
29359;BME280;16347;53.232;6.556;2023-02-04T04:17:55;103334.53;;;10.50;63.12
29359;BME280;16347;53.232;6.556;2023-02-04T04:20:23;103341.31;;;10.57;62.93
29359;BME280;16347;53.232;6.556;2023-02-04T04:22:52;103343.16;;;10.56;62.79
29359;BME280;16347;53.232;6.556;2023-02-04T04:25:21;103352.28;;;10.55;62.50
29359;BME280;16347;53.232;6.556;2023-02-04T04:27:49;103352.28;;;10.55;62.52
29359;BME280;16347;53.232;6.556;2023-02-04T04:30:18;103358.69;;;10.54;62.73
29359;BME280;16347;53.232;6.556;2023-02-04T04:32:46;103367.84;;;10.53;62.67
29359;BME280;16347;53.232;6.556;2023-02-04T04:35:15;103365.13;;;10.53;62.57
29359;BME280;16347;53.232;6.556;2023-02-04T04:37:44;103367.25;;;10.48;62.12
29359;BME280;16347;53.232;6.556;2023-02-04T04:40:12;103371.44;;;10.54;62.24
29359;BME280;16347;53.232;6.556;2023-02-04T04:42:40;103380.47;;;10.54;62.40
29359;BME280;16347;53.232;6.556;2023-02-04T04:45:09;103381.53;;;10.52;62.35
29359;BME280;16347;53.232;6.556;2023-02-04T04:47:38;103385.91;;;10.54;62.16
29359;BME280;16347;53.232;6.556;2023-02-04T04:50:07;103379.69;;;10.52;62.54
29359;BME280;16347;53.232;6.556;2023-02-04T04:52:37;103384.38;;;10.50;62.40
29359;BME280;16347;53.232;6.556;2023-02-04T04:55:06;103389.59;;;10.53;62.32
29359;BME280;16347;53.232;6.556;2023-02-04T04:57:35;103399.41;;;10.56;62.38
29359;BME280;16347;53.232;6.556;2023-02-04T05:00:04;103399.41;;;10.56;62.12
29359;BME280;16347;53.232;6.556;2023-02-04T05:02:32;103399.50;;;10.54;62.37
29359;BME280;16347;53.232;6.556;2023-02-04T05:05:00;103409.53;;;10.54;62.20
29359;BME280;16347;53.232;6.556;2023-02-04T05:07:28;103399.00;;;10.48;62.10
29359;BME280;16347;53.232;6.556;2023-02-04T05:09:58;103396.97;;;10.51;62.14
29359;BME280;16347;53.232;6.556;2023-02-04T05:12:26;103405.94;;;10.53;62.17
29359;BME280;16347;53.232;6.556;2023-02-04T05:14:54;103413.22;;;10.53;61.87
29359;BME280;16347;53.232;6.556;2023-02-04T05:17:22;103417.88;;;10.51;62.06
29359;BME280;16347;53.232;6.556;2023-02-04T05:19:50;103417.09;;;10.49;62.24
29359;BME280;16347;53.232;6.556;2023-02-04T05:22:18;103408.84;;;10.50;62.16
29359;BME280;16347;53.232;6.556;2023-02-04T05:24:46;103419.25;;;10.44;62.23
29359;BME280;16347;53.232;6.556;2023-02-04T05:27:15;103412.81;;;10.45;62.38
29359;BME280;16347;53.232;6.556;2023-02-04T05:29:43;103417.09;;;10.49;62.43
29359;BME280;16347;53.232;6.556;2023-02-04T05:32:11;103422.66;;;10.47;62.32
29359;BME280;16347;53.232;6.556;2023-02-04T05:34:40;103424.56;;;10.45;62.52
29359;BME280;16347;53.232;6.556;2023-02-04T05:37:08;103426.31;;;10.46;62.81
29359;BME280;16347;53.232;6.556;2023-02-04T05:39:36;103424.56;;;10.45;62.15
29359;BME280;16347;53.232;6.556;2023-02-04T05:42:04;103430.13;;;10.44;62.07
29359;BME280;16347;53.232;6.556;2023-02-04T05:44:33;103429.81;;;10.48;62.11
29359;BME280;16347;53.232;6.556;2023-02-04T05:47:02;103436.25;;;10.47;61.95
29359;BME280;16347;53.232;6.556;2023-02-04T05:49:30;103435.38;;;10.47;61.96
29359;BME280;16347;53.232;6.556;2023-02-04T05:51:58;103431.84;;;10.45;62.22
29359;BME280;16347;53.232;6.556;2023-02-04T05:54:26;103436.31;;;10.46;62.33
29359;BME280;16347;53.232;6.556;2023-02-04T05:56:54;103442.53;;;10.48;62.42
29359;BME280;16347;53.232;6.556;2023-02-04T05:59:22;103448.97;;;10.47;61.97
29359;BME280;16347;53.232;6.556;2023-02-04T06:01:51;103453.78;;;10.42;62.36
29359;BME280;16347;53.232;6.556;2023-02-04T06:04:20;103448.16;;;10.45;62.51
29359;BME280;16347;53.232;6.556;2023-02-04T06:06:48;103463.72;;;10.43;62.37
29359;BME280;16347;53.232;6.556;2023-02-04T06:09:16;103462.16;;;10.39;62.03
29359;BME280;16347;53.232;6.556;2023-02-04T06:11:44;103463.91;;;10.40;62.21
29359;BME280;16347;53.232;6.556;2023-02-04T06:14:12;103468.47;;;10.39;61.90
29359;BME280;16347;53.232;6.556;2023-02-04T06:16:40;103473.47;;;10.31;61.97
29359;BME280;16347;53.232;6.556;2023-02-04T06:19:10;103475.16;;;10.34;62.22
29359;BME280;16347;53.232;6.556;2023-02-04T06:21:39;103480.59;;;10.34;62.08
29359;BME280;16347;53.232;6.556;2023-02-04T06:24:07;103479.91;;;10.30;61.95
29359;BME280;16347;53.232;6.556;2023-02-04T06:26:36;103480.00;;;10.28;61.63
29359;BME280;16347;53.232;6.556;2023-02-04T06:29:05;103486.31;;;10.29;61.55
29359;BME280;16347;53.232;6.556;2023-02-04T06:31:33;103486.13;;;10.32;61.64
29359;BME280;16347;53.232;6.556;2023-02-04T06:34:03;103490.69;;;10.32;61.93
29359;BME280;16347;53.232;6.556;2023-02-04T06:36:33;103501.84;;;10.27;62.03
29359;BME280;16347;53.232;6.556;2023-02-04T06:39:01;103488.94;;;10.31;61.85
29359;BME280;16347;53.232;6.556;2023-02-04T06:41:29;103500.97;;;10.26;62.06
29359;BME280;16347;53.232;6.556;2023-02-04T06:43:57;103509.81;;;10.30;61.93
29359;BME280;16347;53.232;6.556;2023-02-04T06:46:25;103505.09;;;10.34;61.62
29359;BME280;16347;53.232;6.556;2023-02-04T06:48:53;103503.59;;;10.28;61.46
29359;BME280;16347;53.232;6.556;2023-02-04T06:51:22;103502.63;;;10.29;61.95
29359;BME280;16347;53.232;6.556;2023-02-04T06:53:51;103509.03;;;10.28;61.73
29359;BME280;16347;53.232;6.556;2023-02-04T06:56:19;103513.50;;;10.29;61.82
29359;BME280;16347;53.232;6.556;2023-02-04T06:58:48;103520.59;;;10.32;61.87
29359;BME280;16347;53.232;6.556;2023-02-04T07:01:16;103523.31;;;10.32;61.45
29359;BME280;16347;53.232;6.556;2023-02-04T07:03:44;103528.94;;;10.28;61.48
29359;BME280;16347;53.232;6.556;2023-02-04T07:06:12;103529.91;;;10.27;61.47
29359;BME280;16347;53.232;6.556;2023-02-04T07:08:41;103531.97;;;10.24;61.02
29359;BME280;16347;53.232;6.556;2023-02-04T07:11:10;103533.78;;;10.23;61.39
29359;BME280;16347;53.232;6.556;2023-02-04T07:13:38;103540.38;;;10.19;61.38
29359;BME280;16347;53.232;6.556;2023-02-04T07:16:07;103541.44;;;10.17;61.59
29359;BME280;16347;53.232;6.556;2023-02-04T07:18:35;103551.50;;;10.15;61.29
29359;BME280;16347;53.232;6.556;2023-02-04T07:21:04;103551.44;;;10.16;61.31
29359;BME280;16347;53.232;6.556;2023-02-04T07:23:32;103550.97;;;10.08;61.43
29359;BME280;16347;53.232;6.556;2023-02-04T07:26:00;103562.78;;;10.07;61.24
29359;BME280;16347;53.232;6.556;2023-02-04T07:28:30;103569.41;;;10.03;61.32
29359;BME280;16347;53.232;6.556;2023-02-04T07:30:58;103573.97;;;10.03;61.48
29359;BME280;16347;53.232;6.556;2023-02-04T07:33:27;103581.94;;;10.06;61.00
29359;BME280;16347;53.232;6.556;2023-02-04T07:35:55;103583.06;;;10.02;59.91
29359;BME280;16347;53.232;6.556;2023-02-04T07:38:24;103587.09;;;9.95;59.69
29359;BME280;16347;53.232;6.556;2023-02-04T07:40:52;103587.19;;;9.93;60.45
29359;BME280;16347;53.232;6.556;2023-02-04T07:43:20;103592.47;;;9.96;60.84
29359;BME280;16347;53.232;6.556;2023-02-04T07:45:50;103590.97;;;10.06;61.37
29359;BME280;16347;53.232;6.556;2023-02-04T07:48:18;103597.47;;;10.19;61.48
29359;BME280;16347;53.232;6.556;2023-02-04T07:50:46;103589.56;;;10.31;61.31
29359;BME280;16347;53.232;6.556;2023-02-04T07:53:15;103598.94;;;10.41;61.60
29359;BME280;16347;53.232;6.556;2023-02-04T07:55:43;103592.94;;;10.50;60.93
29359;BME280;16347;53.232;6.556;2023-02-04T07:58:11;103596.38;;;10.53;60.45
29359;BME280;16347;53.232;6.556;2023-02-04T08:00:39;103596.25;;;10.55;59.90
29359;BME280;16347;53.232;6.556;2023-02-04T08:03:08;103600.66;;;10.57;60.14
29359;BME280;16347;53.232;6.556;2023-02-04T08:05:36;103607.38;;;10.66;60.28
29359;BME280;16347;53.232;6.556;2023-02-04T08:08:05;103616.44;;;10.66;59.58
29359;BME280;16347;53.232;6.556;2023-02-04T08:10:34;103613.28;;;10.58;58.54
29359;BME280;16347;53.232;6.556;2023-02-04T08:13:03;103606.75;;;10.47;58.49
29359;BME280;16347;53.232;6.556;2023-02-04T08:15:31;103615.09;;;10.44;58.88
29359;BME280;16347;53.232;6.556;2023-02-04T08:17:59;103613.56;;;10.38;58.71
29359;BME280;16347;53.232;6.556;2023-02-04T08:20:28;103616.47;;;10.35;58.93
29359;BME280;16347;53.232;6.556;2023-02-04T08:22:57;103615.97;;;10.28;59.26
29359;BME280;16347;53.232;6.556;2023-02-04T08:25:25;103623.16;;;10.29;59.06
29359;BME280;16347;53.232;6.556;2023-02-04T08:27:54;103621.50;;;10.27;59.08
29359;BME280;16347;53.232;6.556;2023-02-04T08:30:23;103625.19;;;10.26;58.66
29359;BME280;16347;53.232;6.556;2023-02-04T08:32:51;103623.78;;;10.19;58.49
29359;BME280;16347;53.232;6.556;2023-02-04T08:35:19;103630.44;;;10.13;58.65
29359;BME280;16347;53.232;6.556;2023-02-04T08:37:49;103634.34;;;10.08;59.27
29359;BME280;16347;53.232;6.556;2023-02-04T08:40:17;103635.41;;;10.05;59.35
29359;BME280;16347;53.232;6.556;2023-02-04T08:42:46;103638.25;;;10.04;59.29
29359;BME280;16347;53.232;6.556;2023-02-04T08:45:14;103632.94;;;10.01;60.01
29359;BME280;16347;53.232;6.556;2023-02-04T08:47:42;103645.59;;;10.02;59.86
29359;BME280;16347;53.232;6.556;2023-02-04T08:50:11;103639.09;;;10.04;60.09
29359;BME280;16347;53.232;6.556;2023-02-04T08:52:39;103652.44;;;10.09;59.99
29359;BME280;16347;53.232;6.556;2023-02-04T08:55:09;103650.84;;;10.05;59.94
29359;BME280;16347;53.232;6.556;2023-02-04T08:57:37;103653.56;;;10.05;59.95
29359;BME280;16347;53.232;6.556;2023-02-04T09:00:06;103649.00;;;10.05;59.30
29359;BME280;16347;53.232;6.556;2023-02-04T09:02:35;103656.28;;;10.05;59.58
29359;BME280;16347;53.232;6.556;2023-02-04T09:05:03;103649.63;;;10.10;59.50
29359;BME280;16347;53.232;6.556;2023-02-04T09:07:31;103662.25;;;10.11;59.79
29359;BME280;16347;53.232;6.556;2023-02-04T09:09:59;103669.31;;;10.15;59.97
29359;BME280;16347;53.232;6.556;2023-02-04T09:12:29;103671.06;;;10.16;59.12
29359;BME280;16347;53.232;6.556;2023-02-04T09:14:57;103673.69;;;10.18;59.45
29359;BME280;16347;53.232;6.556;2023-02-04T09:17:25;103676.50;;;10.16;58.79
29359;BME280;16347;53.232;6.556;2023-02-04T09:19:53;103683.91;;;10.13;59.05
29359;BME280;16347;53.232;6.556;2023-02-04T09:22:21;103685.81;;;10.11;58.74
29359;BME280;16347;53.232;6.556;2023-02-04T09:24:49;103684.00;;;10.11;58.87
29359;BME280;16347;53.232;6.556;2023-02-04T09:27:17;103677.78;;;10.09;59.42
29359;BME280;16347;53.232;6.556;2023-02-04T09:29:47;103685.72;;;10.14;59.50
29359;BME280;16347;53.232;6.556;2023-02-04T09:32:15;103682.72;;;10.18;59.49
29359;BME280;16347;53.232;6.556;2023-02-04T09:34:43;103681.75;;;10.19;59.18
29359;BME280;16347;53.232;6.556;2023-02-04T09:37:11;103676.66;;;10.13;58.27
29359;BME280;16347;53.232;6.556;2023-02-04T09:39:39;103691.56;;;10.06;58.95
29359;BME280;16347;53.232;6.556;2023-02-04T09:42:09;103696.88;;;10.08;59.03
29359;BME280;16347;53.232;6.556;2023-02-04T09:44:38;103700.31;;;10.11;58.26
29359;BME280;16347;53.232;6.556;2023-02-04T09:47:10;103703.84;;;10.13;58.47
29359;BME280;16347;53.232;6.556;2023-02-04T09:49:43;103701.94;;;10.15;58.09
29359;BME280;16347;53.232;6.556;2023-02-04T09:52:14;103710.47;;;10.08;57.44
29359;BME280;16347;53.232;6.556;2023-02-04T09:54:45;103720.56;;;9.90;55.44
29359;BME280;16347;53.232;6.556;2023-02-04T09:57:16;103713.59;;;9.85;55.82
29359;BME280;16347;53.232;6.556;2023-02-04T09:59:46;103721.84;;;9.83;56.33
29359;BME280;16347;53.232;6.556;2023-02-04T10:02:21;103734.13;;;9.90;56.78
29359;BME280;16347;53.232;6.556;2023-02-04T10:04:51;103737.84;;;10.05;58.90
29359;BME280;16347;53.232;6.556;2023-02-04T10:07:23;103731.84;;;10.15;57.43
29359;BME280;16347;53.232;6.556;2023-02-04T10:09:53;103733.59;;;10.16;57.34
29359;BME280;16347;53.232;6.556;2023-02-04T10:12:21;103732.81;;;10.30;58.73
29359;BME280;16347;53.232;6.556;2023-02-04T10:14:50;103730.28;;;10.43;58.81
29359;BME280;16347;53.232;6.556;2023-02-04T10:17:21;103719.50;;;10.57;57.77
29359;BME280;16347;53.232;6.556;2023-02-04T10:19:49;103725.53;;;10.62;58.54
29359;BME280;16347;53.232;6.556;2023-02-04T10:22:19;103728.41;;;10.74;58.09
29359;BME280;16347;53.232;6.556;2023-02-04T10:24:49;103727.44;;;10.91;58.91
29359;BME280;16347;53.232;6.556;2023-02-04T10:27:17;103733.09;;;11.02;59.42
29359;BME280;16347;53.232;6.556;2023-02-04T10:29:54;103739.34;;;11.04;56.93
29359;BME280;16347;53.232;6.556;2023-02-04T10:32:29;103727.16;;;10.96;55.85
29359;BME280;16347;53.232;6.556;2023-02-04T10:34:59;103733.41;;;10.82;54.88
29359;BME280;16347;53.232;6.556;2023-02-04T10:37:28;103737.56;;;10.73;54.43
29359;BME280;16347;53.232;6.556;2023-02-04T10:39:58;103736.22;;;10.65;54.71
29359;BME280;16347;53.232;6.556;2023-02-04T10:42:27;103738.06;;;10.64;55.10
29359;BME280;16347;53.232;6.556;2023-02-04T10:44:56;103734.38;;;10.65;55.05
29359;BME280;16347;53.232;6.556;2023-02-04T10:47:28;103733.50;;;10.65;55.66
29359;BME280;16347;53.232;6.556;2023-02-04T10:49:59;103733.44;;;10.66;55.98
29359;BME280;16347;53.232;6.556;2023-02-04T10:52:34;103738.75;;;10.68;55.89
29359;BME280;16347;53.232;6.556;2023-02-04T10:55:05;103744.06;;;10.71;55.66
29359;BME280;16347;53.232;6.556;2023-02-04T10:57:37;103740.63;;;10.67;55.79
29359;BME280;16347;53.232;6.556;2023-02-04T11:00:14;103742.28;;;10.70;56.04
29359;BME280;16347;53.232;6.556;2023-02-04T11:02:48;103745.97;;;10.69;56.37
29359;BME280;16347;53.232;6.556;2023-02-04T11:05:21;103741.75;;;10.79;56.16
29359;BME280;16347;53.232;6.556;2023-02-04T11:07:50;103745.94;;;10.85;55.84
29359;BME280;16347;53.232;6.556;2023-02-04T11:10:22;103735.06;;;10.85;55.98
29359;BME280;16347;53.232;6.556;2023-02-04T11:13:04;103736.75;;;10.71;55.24
29359;BME280;16347;53.232;6.556;2023-02-04T11:15:41;103737.19;;;10.79;55.66
29359;BME280;16347;53.232;6.556;2023-02-04T11:18:25;103733.69;;;10.77;55.47
29359;BME280;16347;53.232;6.556;2023-02-04T11:20:57;103729.47;;;10.72;54.39
29359;BME280;16347;53.232;6.556;2023-02-04T11:23:34;103732.63;;;10.64;53.66
29359;BME280;16347;53.232;6.556;2023-02-04T11:26:08;103725.88;;;10.56;53.17
29359;BME280;16347;53.232;6.556;2023-02-04T11:28:49;103729.84;;;10.50;53.77
29359;BME280;16347;53.232;6.556;2023-02-04T11:31:41;103736.75;;;10.71;54.64
29359;BME280;16347;53.232;6.556;2023-02-04T11:34:27;103738.69;;;10.69;55.46
29359;BME280;16347;53.232;6.556;2023-02-04T11:37:03;103742.63;;;10.79;55.70
29359;BME280;16347;53.232;6.556;2023-02-04T11:39:36;103740.16;;;10.91;55.01
29359;BME280;16347;53.232;6.556;2023-02-04T11:42:17;103730.13;;;11.07;54.91
29359;BME280;16347;53.232;6.556;2023-02-04T11:44:50;103732.53;;;11.11;54.23
29359;BME280;16347;53.232;6.556;2023-02-04T11:47:19;103736.94;;;11.14;52.02
29359;BME280;16347;53.232;6.556;2023-02-04T11:49:55;103731.63;;;11.26;52.68
29359;BME280;16347;53.232;6.556;2023-02-04T11:52:24;103735.94;;;11.30;51.88
29359;BME280;16347;53.232;6.556;2023-02-04T11:54:54;103738.66;;;11.30;51.45
29359;BME280;16347;53.232;6.556;2023-02-04T11:57:22;103749.47;;;11.46;52.08
29359;BME280;16347;53.232;6.556;2023-02-04T11:59:51;103740.34;;;11.47;51.29
29359;BME280;16347;53.232;6.556;2023-02-04T12:02:20;103734.00;;;11.47;52.29
29359;BME280;16347;53.232;6.556;2023-02-04T12:04:55;103727.41;;;11.51;50.63
29359;BME280;16347;53.232;6.556;2023-02-04T12:07:26;103729.84;;;11.41;51.14
29359;BME280;16347;53.232;6.556;2023-02-04T12:09:55;103722.53;;;11.56;52.75
29359;BME280;16347;53.232;6.556;2023-02-04T12:12:28;103723.19;;;11.75;52.31
29359;BME280;16347;53.232;6.556;2023-02-04T12:15:01;103722.50;;;11.86;51.39
29359;BME280;16347;53.232;6.556;2023-02-04T12:17:29;103721.25;;;12.05;52.08
29359;BME280;16347;53.232;6.556;2023-02-04T12:20:01;103721.41;;;12.16;50.24
29359;BME280;16347;53.232;6.556;2023-02-04T12:22:34;103707.38;;;12.22;50.70
29359;BME280;16347;53.232;6.556;2023-02-04T12:25:06;103707.66;;;12.32;50.27
29359;BME280;16347;53.232;6.556;2023-02-04T12:27:36;103717.00;;;12.42;49.42
29359;BME280;16347;53.232;6.556;2023-02-04T12:30:06;103718.06;;;12.40;48.04
29359;BME280;16347;53.232;6.556;2023-02-04T12:32:35;103720.38;;;12.46;48.81
29359;BME280;16347;53.232;6.556;2023-02-04T12:35:05;103710.94;;;12.51;49.36
29359;BME280;16347;53.232;6.556;2023-02-04T12:37:34;103721.69;;;12.67;49.07
29359;BME280;16347;53.232;6.556;2023-02-04T12:40:02;103727.53;;;12.75;48.54
29359;BME280;16347;53.232;6.556;2023-02-04T12:42:31;103716.22;;;12.94;48.95
29359;BME280;16347;53.232;6.556;2023-02-04T12:45:00;103729.38;;;13.01;47.39
29359;BME280;16347;53.232;6.556;2023-02-04T12:47:28;103715.56;;;13.17;47.34
29359;BME280;16347;53.232;6.556;2023-02-04T12:49:57;103715.59;;;13.29;46.82
29359;BME280;16347;53.232;6.556;2023-02-04T12:52:27;103720.19;;;13.42;46.07
29359;BME280;16347;53.232;6.556;2023-02-04T12:54:56;103717.91;;;13.61;46.49
29359;BME280;16347;53.232;6.556;2023-02-04T12:57:26;103710.59;;;13.61;45.73
29359;BME280;16347;53.232;6.556;2023-02-04T12:59:54;103709.16;;;13.81;46.04
29359;BME280;16347;53.232;6.556;2023-02-04T13:02:26;103710.16;;;13.93;45.27